Time;durP1;ratioP1;P1;durP2;ratioP2;P2;SDS_P1;SDS_P2;PMS_P1;PMS_P2;Temp;Humidity;BMP_temperature;BMP_pressure;BME280_temperature;BME280_humidity;BME280_pressure;Samples;Min_cycle;Max_cycle;Signal;HPM_P1;HPM_P2
2022/07/12 00:00:07;;;;;;;12.53;9.03;;;;;;;15.27;100.00;102180.22;172569;28;943;-69
2022/07/12 00:00:13;;;;;;;12.27;8.96;;;;;;;15.27;100.00;102178.44;172612;28;1055;-68
2022/07/12 00:00:19;;;;;;;11.45;9.00;;;;;;;15.27;100.00;102172.31;172662;28;931;-69
2022/07/12 00:00:24;;;;;;;9.90;8.93;;;;;;;15.27;100.00;102178.44;172595;28;844;-69
2022/07/12 00:00:30;;;;;;;9.65;8.75;;;;;;;15.27;100.00;102177.56;172613;28;879;-69
2022/07/12 00:00:35;;;;;;;9.73;8.83;;;;;;;15.27;100.00;102182.84;172647;28;959;-69
2022/07/12 00:00:40;;;;;;;9.90;9.00;;;;;;;15.26;100.00;102173.25;172622;28;1094;-69
2022/07/12 00:00:46;;;;;;;9.80;8.90;;;;;;;15.26;100.00;102187.22;172661;28;839;-69
2022/07/12 00:00:52;;;;;;;9.68;8.77;;;;;;;15.27;100.00;102177.56;172626;28;868;-69
2022/07/12 00:00:58;;;;;;;9.97;8.80;;;;;;;15.27;100.00;102182.84;172660;28;880;-68
2022/07/12 00:01:04;;;;;;;9.97;8.63;;;;;;;15.27;100.00;102177.56;172658;28;955;-69
2022/07/12 00:01:09;;;;;;;9.40;8.40;;;;;;;15.26;100.00;102178.50;172614;28;1010;-69
2022/07/12 00:01:14;;;;;;;9.30;8.30;;;;;;;15.26;100.00;102179.34;172635;28;919;-69
2022/07/12 00:01:20;;;;;;;9.53;8.40;;;;;;;15.26;100.00;102179.34;172267;28;777;-68
2022/07/12 00:01:25;;;;;;;9.17;8.27;;;;;;;15.26;100.00;102176.72;171970;28;987;-68
2022/07/12 00:01:30;;;;;;;9.20;8.30;;;;;;;15.26;100.00;102181.13;171915;28;1047;-69
2022/07/12 00:01:36;;;;;;;9.37;8.40;;;;;;;15.26;100.00;102178.50;171978;28;955;-69
2022/07/12 00:01:41;;;;;;;9.40;8.45;;;;;;;15.26;100.00;102181.13;171854;28;958;-69
2022/07/12 00:01:47;;;;;;;9.17;8.27;;;;;;;15.26;100.00;102175.88;172241;28;919;-69
2022/07/12 00:01:52;;;;;;;9.07;8.20;;;;;;;15.27;100.00;102182.84;172624;28;875;-69
2022/07/12 00:01:58;;;;;;;9.05;8.23;;;;;;;15.25;100.00;102180.28;172630;28;927;-69
2022/07/12 00:02:03;;;;;;;9.10;8.30;;;;;;;15.25;100.00;102179.41;172667;28;1042;-68
2022/07/12 00:02:09;;;;;;;9.10;8.30;;;;;;;15.25;100.00;102180.28;172614;28;928;-68
2022/07/12 00:02:15;;;;;;;9.48;8.48;;;;;;;15.25;100.00;102189.91;172599;28;1401;-68
2022/07/12 00:02:20;;;;;;;9.87;8.70;;;;;;;15.25;100.00;102179.41;172649;28;1042;-68
2022/07/12 00:02:25;;;;;;;10.27;8.70;;;;;;;15.24;100.00;102182.97;171895;28;743;-68
2022/07/12 00:02:32;;;;;;;10.83;8.70;;;;;;;15.24;100.00;102178.56;171920;28;816;-68
2022/07/12 00:02:37;;;;;;;11.10;8.74;;;;;;;15.24;100.00;102181.19;171915;28;900;-68
2022/07/12 00:02:43;;;;;;;10.33;8.73;;;;;;;15.24;100.00;102183.81;171857;28;1038;-68
2022/07/12 00:02:48;;;;;;;9.73;8.53;;;;;;;15.24;100.00;102175.06;171952;28;1038;-68
2022/07/12 00:02:53;;;;;;;10.52;8.50;;;;;;;15.24;100.00;102182.97;171857;28;1028;-68
2022/07/12 00:02:59;;;;;;;9.93;8.53;;;;;;;15.24;100.00;102177.69;171965;28;844;-69
2022/07/12 00:03:04;;;;;;;9.50;8.50;;;;;;;15.22;100.00;102177.75;171983;28;919;-69
2022/07/12 00:03:10;;;;;;;9.63;8.65;;;;;;;15.23;100.00;102176.88;171956;28;1094;-69
2022/07/12 00:03:15;;;;;;;9.98;8.98;;;;;;;15.24;100.00;102185.59;171916;28;941;-68
2022/07/12 00:03:20;;;;;;;10.17;9.17;;;;;;;15.24;100.00;102182.97;171955;28;1022;-68
2022/07/12 00:03:26;;;;;;;10.40;9.30;;;;;;;15.22;100.00;102179.56;171947;28;994;-69
2022/07/12 00:03:33;;;;;;;10.57;9.48;;;;;;;15.22;100.00;102180.38;171179;28;1528;-68
2022/07/12 00:03:38;;;;;;;10.70;9.60;;;;;;;15.22;100.00;102179.56;171288;28;939;-68
2022/07/12 00:03:44;;;;;;;10.80;9.70;;;;;;;15.23;100.00;102181.25;171304;28;944;-69
2022/07/12 00:03:49;;;;;;;10.88;9.80;;;;;;;15.22;100.00;102179.56;171265;28;952;-68
2022/07/12 00:03:55;;;;;;;10.70;9.70;;;;;;;15.22;100.00;102179.56;171260;28;1078;-68
2022/07/12 00:04:01;;;;;;;10.70;9.70;;;;;;;15.22;100.00;102179.56;171268;28;1059;-68
2022/07/12 00:04:06;;;;;;;11.02;9.85;;;;;;;15.21;100.00;102177.81;171325;28;1010;-69
2022/07/12 00:04:12;;;;;;;10.83;9.73;;;;;;;15.19;100.00;102181.38;170532;28;813;-69
2022/07/12 00:04:17;;;;;;;10.77;9.67;;;;;;;15.18;100.00;102179.66;169947;29;848;-69
2022/07/12 00:04:23;;;;;;;10.70;9.68;;;;;;;15.19;100.00;102183.13;169988;28;861;-69
2022/07/12 00:04:28;;;;;;;10.80;9.75;;;;;;;15.19;100.00;102180.50;170526;28;860;-68
2022/07/12 00:04:34;;;;;;;10.80;9.80;;;;;;;15.19;100.00;102181.38;171361;28;912;-68
2022/07/12 00:04:39;;;;;;;11.00;9.90;;;;;;;15.17;100.00;102188.47;171287;28;1295;-69
2022/07/12 00:04:44;;;;;;;10.97;9.87;;;;;;;15.18;100.00;102178.81;171292;28;1026;-68
2022/07/12 00:04:51;;;;;;;11.10;9.87;;;;;;;15.17;100.00;102183.22;171367;28;864;-69
2022/07/12 00:04:56;;;;;;;11.17;9.87;;;;;;;15.17;100.00;102177.97;171988;28;966;-69
2022/07/12 00:05:02;;;;;;;11.27;9.77;;;;;;;15.16;100.00;102176.22;171989;28;1109;-69
2022/07/12 00:05:08;;;;;;;10.95;9.68;;;;;;;15.15;100.00;102179.78;171914;28;975;-68
2022/07/12 00:05:13;;;;;;;10.80;9.70;;;;;;;15.15;100.00;102185.03;171951;28;947;-69
2022/07/12 00:05:19;;;;;;;10.60;9.60;;;;;;;15.14;100.00;102180.72;171941;28;973;-69
2022/07/12 00:05:24;;;;;;;10.57;9.57;;;;;;;15.14;100.00;102180.72;171208;28;915;-68
2022/07/12 00:05:29;;;;;;;10.37;9.40;;;;;;;15.13;100.00;102180.78;171532;28;927;-68
2022/07/12 00:05:35;;;;;;;10.27;9.30;;;;;;;15.14;100.00;102177.22;172009;28;967;-69
2022/07/12 00:05:40;;;;;;;10.30;9.30;;;;;;;15.14;100.00;102183.34;171963;28;912;-68
2022/07/12 00:05:45;;;;;;;10.20;9.20;;;;;;;15.13;100.00;102184.28;171910;28;1017;-69
2022/07/12 00:05:51;;;;;;;10.37;9.30;;;;;;;15.13;100.00;102181.63;171987;28;832;-68
2022/07/12 00:05:57;;;;;;;10.52;9.15;;;;;;;15.14;100.00;102185.97;171969;28;932;-68
2022/07/12 00:06:04;;;;;;;10.45;9.20;;;;;;;15.13;100.00;102181.63;171236;28;932;-69
2022/07/12 00:06:09;;;;;;;9.90;8.90;;;;;;;15.13;100.00;102184.28;171498;28;1067;-68
2022/07/12 00:06:15;;;;;;;9.90;8.90;;;;;;;15.12;100.00;102177.28;171962;28;1105;-69
2022/07/12 00:06:20;;;;;;;9.75;8.82;;;;;;;15.13;100.00;102186.03;171806;28;728;-68
2022/07/12 00:06:25;;;;;;;9.70;8.80;;;;;;;15.12;100.00;102185.16;171881;28;987;-68
2022/07/12 00:06:31;;;;;;;9.83;8.93;;;;;;;15.12;100.00;102185.16;171939;28;928;-68
2022/07/12 00:06:36;;;;;;;10.23;9.15;;;;;;;15.12;100.00;102182.53;171203;28;971;-68
2022/07/12 00:06:42;;;;;;;10.40;9.30;;;;;;;15.12;100.00;102184.31;171266;28;836;-68
2022/07/12 00:06:47;;;;;;;10.40;9.30;;;;;;;15.11;100.00;102186.09;171297;28;935;-68
2022/07/12 00:06:53;;;;;;;10.20;9.17;;;;;;;15.11;100.00;102177.34;171274;28;1070;-69
2022/07/12 00:06:58;;;;;;;10.30;9.30;;;;;;;15.12;100.00;102186.97;171329;28;837;-69
2022/07/12 00:07:04;;;;;;;10.30;9.30;;;;;;;15.10;100.00;102187.00;171335;28;844;-68
2022/07/12 00:07:10;;;;;;;10.07;9.18;;;;;;;15.10;100.00;102187.00;170533;28;900;-69
2022/07/12 00:07:16;;;;;;;9.95;9.02;;;;;;;15.10;100.00;102175.63;170602;29;1056;-69
2022/07/12 00:07:21;;;;;;;10.02;9.02;;;;;;;15.08;100.00;102183.56;170812;28;916;-68
2022/07/12 00:07:27;;;;;;;10.07;9.07;;;;;;;15.10;100.00;102187.00;171248;28;1042;-68
2022/07/12 00:07:32;;;;;;;9.80;8.83;;;;;;;15.08;100.00;102175.69;171305;28;915;-69
2022/07/12 00:07:37;;;;;;;9.83;8.90;;;;;;;15.10;100.00;102183.53;171170;28;1007;-68
2022/07/12 00:07:43;;;;;;;10.00;9.10;;;;;;;15.08;100.00;102178.31;171294;28;972;-69
2022/07/12 00:07:48;;;;;;;9.80;9.00;;;;;;;15.08;100.00;102178.31;171265;28;1038;-68
2022/07/12 00:07:54;;;;;;;9.98;8.98;;;;;;;15.09;100.00;102184.44;170544;28;1584;-68
2022/07/12 00:07:59;;;;;;;10.10;9.00;;;;;;;15.08;100.00;102178.31;170758;28;1035;-68
2022/07/12 00:08:06;;;;;;;10.10;9.00;;;;;;;15.08;100.00;102186.22;171348;28;852;-68
2022/07/12 00:08:11;;;;;;;10.03;8.90;;;;;;;15.09;100.00;102184.44;171283;28;964;-68
2022/07/12 00:08:17;;;;;;;10.53;9.03;;;;;;;15.08;100.00;102180.13;170535;28;720;-68
2022/07/12 00:08:23;;;;;;;10.38;9.18;;;;;;;15.08;100.00;102178.31;170615;29;920;-68
2022/07/12 00:08:29;;;;;;;10.18;9.13;;;;;;;15.09;100.00;102184.44;170506;29;1153;-68
2022/07/12 00:08:34;;;;;;;10.02;9.00;;;;;;;15.08;100.00;102177.47;170848;28;1071;-68
2022/07/12 00:08:39;;;;;;;9.97;8.93;;;;;;;15.08;100.00;102183.56;171284;28;860;-68
2022/07/12 00:08:45;;;;;;;9.80;8.80;;;;;;;15.08;100.00;102178.31;171256;28;920;-68
2022/07/12 00:08:50;;;;;;;9.60;8.68;;;;;;;15.09;100.00;102181.81;171260;28;1086;-69
2022/07/12 00:08:55;;;;;;;9.63;8.70;;;;;;;15.09;100.00;102181.81;171287;28;1006;-68
2022/07/12 00:09:01;;;;;;;9.65;8.73;;;;;;;15.09;100.00;102174.75;171253;28;1023;-68
2022/07/12 00:09:06;;;;;;;9.60;8.70;;;;;;;15.09;100.00;102181.81;171425;28;900;-68
2022/07/12 00:09:12;;;;;;;9.77;8.85;;;;;;;15.09;100.00;102176.56;171949;28;911;-68
2022/07/12 00:09:17;;;;;;;9.70;8.70;;;;;;;15.08;100.00;102173.06;171873;28;895;-68
2022/07/12 00:09:22;;;;;;;9.53;8.63;;;;;;;15.08;100.00;102183.56;171975;28;935;-68
2022/07/12 00:09:28;;;;;;;9.52;8.60;;;;;;;15.10;100.00;102180.88;171914;28;915;-68
2022/07/12 00:09:33;;;;;;;9.90;8.83;;;;;;;15.10;100.00;102179.13;171965;28;1031;-68
2022/07/12 00:09:39;;;;;;;11.65;8.90;;;;;;;15.09;100.00;102177.41;171940;28;975;-68
2022/07/12 00:09:44;;;;;;;11.77;9.10;;;;;;;15.08;100.00;102180.13;171977;28;848;-68
2022/07/12 00:09:49;;;;;;;12.00;9.43;;;;;;;15.08;100.00;102173.06;171955;28;896;-68
2022/07/12 00:09:55;;;;;;;12.50;9.68;;;;;;;15.10;100.00;102180.88;172600;28;911;-68
2022/07/12 00:10:00;;;;;;;12.17;9.80;;;;;;;15.08;100.00;102175.69;172635;28;958;-69
2022/07/12 00:10:06;;;;;;;11.43;9.87;;;;;;;15.08;100.00;102182.75;172681;28;832;-68
2022/07/12 00:10:11;;;;;;;10.90;9.90;;;;;;;15.08;100.00;102183.56;172607;28;1042;-68
2022/07/12 00:10:17;;;;;;;10.98;9.90;;;;;;;15.08;100.00;102180.94;172633;28;911;-68
2022/07/12 00:10:22;;;;;;;10.90;9.80;;;;;;;15.08;100.00;102175.69;172616;28;924;-68
2022/07/12 00:10:27;;;;;;;10.90;9.80;;;;;;;15.07;100.00;102176.63;172622;28;986;-68
2022/07/12 00:10:33;;;;;;;10.75;9.65;;;;;;;15.07;100.00;102174.00;172642;28;911;-68
2022/07/12 00:10:38;;;;;;;10.90;9.60;;;;;;;15.07;100.00;102176.63;172564;28;1038;-69
2022/07/12 00:10:43;;;;;;;10.90;9.60;;;;;;;15.08;100.00;102174.84;172636;28;1097;-68
2022/07/12 00:10:50;;;;;;;10.47;9.47;;;;;;;15.07;100.00;102181.88;172616;28;1030;-68
2022/07/12 00:10:55;;;;;;;10.40;9.40;;;;;;;15.07;100.00;102179.25;172670;28;907;-68
2022/07/12 00:11:00;;;;;;;10.60;9.60;;;;;;;15.08;100.00;102177.47;172641;28;987;-68
2022/07/12 00:11:06;;;;;;;10.82;9.73;;;;;;;15.07;100.00;102168.72;172655;28;932;-68
2022/07/12 00:11:11;;;;;;;10.83;9.77;;;;;;;15.06;100.00;102175.75;172618;28;1080;-68
2022/07/12 00:11:16;;;;;;;10.90;9.80;;;;;;;15.08;100.00;102180.13;172647;28;1026;-69
2022/07/12 00:11:22;;;;;;;10.98;9.88;;;;;;;15.07;100.00;102174.00;172687;28;1050;-68
2022/07/12 00:11:27;;;;;;;10.97;9.87;;;;;;;15.06;100.00;102180.16;172696;28;931;-68
2022/07/12 00:11:35;;;;;;;11.07;9.73;;;;;;;15.08;100.00;102178.31;172709;28;863;-68
2022/07/12 00:11:41;;;;;;;11.56;9.64;;;;;;;15.07;100.00;102166.09;172664;28;958;-68
2022/07/12 00:11:47;;;;;;;11.88;9.44;;;;;;;15.08;100.00;102170.44;172686;28;978;-68
2022/07/12 00:11:52;;;;;;;11.77;9.33;;;;;;;15.08;100.00;102174.84;172697;28;971;-68
2022/07/12 00:11:58;;;;;;;11.77;9.32;;;;;;;15.07;100.00;102179.25;172672;28;1041;-68
2022/07/12 00:12:04;;;;;;;11.20;9.30;;;;;;;15.08;100.00;102170.44;172662;28;1086;-68
2022/07/12 00:12:10;;;;;;;10.57;9.35;;;;;;;15.07;100.00;102174.00;172703;28;939;-68
2022/07/12 00:12:15;;;;;;;10.46;9.36;;;;;;;15.08;100.00;102173.06;172529;28;1226;-68
2022/07/12 00:12:21;;;;;;;10.50;9.40;;;;;;;15.08;100.00;102169.59;172646;28;1105;-68
2022/07/12 00:12:26;;;;;;;10.43;9.33;;;;;;;15.08;100.00;102174.84;172667;28;884;-69
2022/07/12 00:12:32;;;;;;;10.77;9.30;;;;;;;15.07;100.00;102171.34;171900;28;943;-68
2022/07/12 00:12:38;;;;;;;11.10;9.10;;;;;;;15.08;100.00;102167.81;171862;28;922;-68
2022/07/12 00:12:43;;;;;;;11.50;9.10;;;;;;;15.08;100.00;102177.47;171965;28;966;-68
2022/07/12 00:12:49;;;;;;;10.95;9.10;;;;;;;15.08;100.00;102172.22;171956;28;907;-68
2022/07/12 00:12:54;;;;;;;10.97;9.03;;;;;;;15.07;100.00;102168.72;171946;28;848;-68
2022/07/12 00:13:00;;;;;;;10.02;8.77;;;;;;;15.08;100.00;102167.81;171926;28;944;-68
2022/07/12 00:13:05;;;;;;;9.80;8.80;;;;;;;15.08;100.00;102173.06;171952;28;840;-69
2022/07/12 00:13:10;;;;;;;9.73;8.80;;;;;;;15.08;100.00;102170.44;171920;28;1057;-68
2022/07/12 00:13:16;;;;;;;9.65;8.75;;;;;;;15.08;100.00;102166.97;171933;28;864;-68
2022/07/12 00:13:22;;;;;;;9.73;8.73;;;;;;;15.08;100.00;102173.06;171847;28;1069;-68
2022/07/12 00:13:29;;;;;;;9.80;8.80;;;;;;;15.08;100.00;102175.69;171980;28;865;-69
2022/07/12 00:13:35;;;;;;;9.65;8.75;;;;;;;15.09;100.00;102173.94;171950;28;951;-68
2022/07/12 00:13:40;;;;;;;9.87;8.97;;;;;;;15.08;100.00;102173.06;171957;28;861;-68
2022/07/12 00:13:46;;;;;;;10.18;9.20;;;;;;;15.07;100.00;102171.34;171967;28;1026;-68
2022/07/12 00:13:51;;;;;;;10.30;9.30;;;;;;;15.08;100.00;102166.97;171958;28;900;-68
2022/07/12 00:13:57;;;;;;;10.55;9.55;;;;;;;15.08;100.00;102164.34;171958;28;911;-68
2022/07/12 00:14:03;;;;;;;10.70;9.67;;;;;;;15.08;100.00;102170.44;171986;28;923;-68
2022/07/12 00:14:12;;;;;;;10.96;9.78;;;;;;;15.07;100.00;102176.63;171956;28;1082;-68
2022/07/12 00:14:17;;;;;;;10.73;9.62;;;;;;;15.08;100.00;102162.53;172616;28;1037;-68
2022/07/12 00:14:23;;;;;;;10.82;9.73;;;;;;;15.07;100.00;102168.72;172603;28;844;-68
2022/07/12 00:14:28;;;;;;;10.80;9.63;;;;;;;15.08;100.00;102166.97;171845;28;1369;-70
2022/07/12 00:14:33;;;;;;;10.82;9.68;;;;;;;15.09;100.00;102166.03;172001;28;1093;-69
2022/07/12 00:14:39;;;;;;;10.53;9.47;;;;;;;15.08;100.00;102170.44;171968;28;1026;-69
2022/07/12 00:14:44;;;;;;;10.33;9.33;;;;;;;15.08;100.00;102165.19;171866;28;923;-69
2022/07/12 00:14:50;;;;;;;10.18;9.18;;;;;;;15.09;100.00;102179.19;171958;28;1050;-69
2022/07/12 00:14:56;;;;;;;10.23;9.23;;;;;;;15.09;100.00;102166.88;171225;28;1120;-69
2022/07/12 00:15:01;;;;;;;9.90;9.00;;;;;;;15.08;100.00;102167.81;171288;28;919;-69
2022/07/12 00:15:08;;;;;;;9.80;8.90;;;;;;;15.08;100.00;102167.81;171314;28;856;-69
2022/07/12 00:15:15;;;;;;;9.76;8.86;;;;;;;15.08;100.00;102167.81;171278;28;1034;-69
2022/07/12 00:15:21;;;;;;;9.53;8.63;;;;;;;15.08;100.00;102166.97;171702;28;943;-69
2022/07/12 00:15:27;;;;;;;9.30;8.45;;;;;;;15.08;100.00;102166.97;171979;28;934;-69
2022/07/12 00:15:32;;;;;;;9.30;8.40;;;;;;;15.08;100.00;102173.06;171201;28;885;-69
2022/07/12 00:15:37;;;;;;;9.20;8.35;;;;;;;15.08;100.00;102161.72;171323;28;840;-68
2022/07/12 00:15:43;;;;;;;9.13;8.33;;;;;;;15.08;100.00;102173.06;171237;28;1074;-69
2022/07/12 00:15:49;;;;;;;9.27;8.47;;;;;;;15.07;100.00;102163.47;171291;28;959;-69
2022/07/12 00:15:54;;;;;;;9.15;8.27;;;;;;;15.08;100.00;102167.81;171283;28;943;-69
2022/07/12 00:15:59;;;;;;;9.13;8.27;;;;;;;15.08;100.00;102170.44;171268;28;824;-69
2022/07/12 00:16:05;;;;;;;9.10;8.20;;;;;;;15.08;100.00;102167.81;171315;28;833;-68
2022/07/12 00:16:11;;;;;;;9.13;8.20;;;;;;;15.08;100.00;102161.72;171265;28;861;-69
2022/07/12 00:16:16;;;;;;;9.13;8.23;;;;;;;15.08;100.00;102161.72;171291;28;1038;-69
2022/07/12 00:16:22;;;;;;;9.27;8.30;;;;;;;15.07;100.00;102166.09;171273;28;1031;-69
2022/07/12 00:16:28;;;;;;;9.25;8.30;;;;;;;15.08;100.00;102167.81;171793;28;995;-69
2022/07/12 00:16:34;;;;;;;9.37;8.37;;;;;;;15.08;100.00;102167.81;171919;28;1046;-69
2022/07/12 00:16:39;;;;;;;9.23;8.32;;;;;;;15.08;100.00;102167.81;171948;28;1068;-69
2022/07/12 00:16:45;;;;;;;9.30;8.30;;;;;;;15.08;100.00;102164.34;171181;28;1037;-69
2022/07/12 00:16:51;;;;;;;9.10;8.20;;;;;;;15.07;100.00;102163.47;171200;28;1034;-69
2022/07/12 00:16:56;;;;;;;9.00;8.12;;;;;;;15.07;100.00;102163.47;171847;28;990;-69
2022/07/12 00:17:04;;;;;;;8.70;7.90;;;;;;;15.07;100.00;102163.47;171928;28;970;-69
2022/07/12 00:17:10;;;;;;;8.77;7.93;;;;;;;15.07;100.00;102171.34;171958;28;876;-69
2022/07/12 00:17:15;;;;;;;8.80;7.90;;;;;;;15.07;100.00;102163.47;171981;28;888;-69
2022/07/12 00:17:21;;;;;;;8.93;7.80;;;;;;;15.06;100.00;102164.41;171942;28;1042;-69
2022/07/12 00:17:26;;;;;;;8.98;7.88;;;;;;;15.07;100.00;102160.84;171926;28;903;-69
2022/07/12 00:17:32;;;;;;;9.30;8.03;;;;;;;15.08;100.00;102164.34;172429;28;1042;-69
2022/07/12 00:17:38;;;;;;;8.93;8.00;;;;;;;15.07;100.00;102166.09;172651;28;1030;-69
2022/07/12 00:17:43;;;;;;;8.72;7.90;;;;;;;15.08;100.00;102166.97;172619;28;946;-69
2022/07/12 00:17:49;;;;;;;8.77;7.97;;;;;;;15.07;100.00;102166.09;172624;28;982;-69
2022/07/12 00:17:54;;;;;;;8.60;7.80;;;;;;;15.07;100.00;102166.09;172609;28;1046;-69
2022/07/12 00:18:00;;;;;;;8.50;7.70;;;;;;;15.06;100.00;102165.22;172614;28;988;-69
2022/07/12 00:18:05;;;;;;;8.43;7.63;;;;;;;15.06;100.00;102156.50;172674;28;932;-68
2022/07/12 00:18:11;;;;;;;8.63;7.73;;;;;;;15.06;100.00;102162.59;172666;28;935;-69
2022/07/12 00:18:16;;;;;;;8.55;7.65;;;;;;;15.06;100.00;102164.41;172643;28;903;-69
2022/07/12 00:18:22;;;;;;;8.73;7.73;;;;;;;15.06;100.00;102159.13;172635;28;1025;-68
2022/07/12 00:18:28;;;;;;;9.23;7.90;;;;;;;15.07;100.00;102168.72;172635;28;908;-69
2022/07/12 00:18:33;;;;;;;9.05;7.90;;;;;;;15.06;100.00;102162.59;172605;28;938;-69
2022/07/12 00:18:39;;;;;;;8.90;7.97;;;;;;;15.06;100.00;102164.41;172653;28;1050;-68
2022/07/12 00:18:44;;;;;;;8.77;7.90;;;;;;;15.05;100.00;102163.53;172625;28;1109;-69
2022/07/12 00:18:50;;;;;;;8.60;7.80;;;;;;;15.07;100.00;102160.84;172637;28;987;-69
2022/07/12 00:18:56;;;;;;;8.50;7.78;;;;;;;15.06;100.00;102164.41;173145;28;934;-69
2022/07/12 00:19:01;;;;;;;8.30;7.60;;;;;;;15.07;100.00;102166.09;173259;28;954;-68
2022/07/12 00:19:08;;;;;;;8.23;7.53;;;;;;;15.05;100.00;102163.53;173334;28;875;-69
2022/07/12 00:19:14;;;;;;;8.27;7.47;;;;;;;15.06;100.00;102161.78;173316;28;911;-68
2022/07/12 00:19:20;;;;;;;8.27;7.47;;;;;;;15.06;100.00;102164.41;173324;28;848;-69
2022/07/12 00:19:25;;;;;;;8.13;7.33;;;;;;;15.05;100.00;102162.66;173324;28;950;-69
2022/07/12 00:19:31;;;;;;;8.20;7.40;;;;;;;15.06;100.00;102164.41;173200;28;1416;-69
2022/07/12 00:19:36;;;;;;;8.27;7.38;;;;;;;15.06;100.00;102164.41;173352;28;926;-69
2022/07/12 00:19:42;;;;;;;8.10;7.30;;;;;;;15.04;100.00;102159.19;173298;28;919;-68
2022/07/12 00:19:47;;;;;;;8.20;7.38;;;;;;;15.05;100.00;102163.53;173293;28;859;-69
2022/07/12 00:19:52;;;;;;;8.50;7.43;;;;;;;15.05;100.00;102166.16;173328;28;943;-69
2022/07/12 00:19:58;;;;;;;9.60;7.63;;;;;;;15.05;100.00;102160.91;173318;28;1038;-69
2022/07/12 00:20:04;;;;;;;10.33;7.67;;;;;;;15.05;100.00;102157.41;173306;28;1027;-69
2022/07/12 00:20:10;;;;;;;10.45;7.72;;;;;;;15.05;100.00;102162.66;173321;28;915;-69
2022/07/12 00:20:16;;;;;;;10.38;7.72;;;;;;;15.05;100.00;102162.66;173299;28;971;-69
2022/07/12 00:20:21;;;;;;;9.43;7.70;;;;;;;15.05;100.00;102167.91;173287;28;867;-69
2022/07/12 00:20:27;;;;;;;8.75;7.50;;;;;;;15.05;100.00;102162.66;173307;28;852;-69
2022/07/12 00:20:32;;;;;;;8.47;7.40;;;;;;;15.05;100.00;102162.66;173307;28;919;-68
2022/07/12 00:20:38;;;;;;;8.68;7.40;;;;;;;15.04;100.00;102161.81;173322;28;1042;-69
2022/07/12 00:20:43;;;;;;;9.10;7.30;;;;;;;15.05;100.00;102160.03;173282;28;856;-69
2022/07/12 00:20:49;;;;;;;9.37;7.27;;;;;;;15.04;100.00;102160.97;172548;28;1010;-69
2022/07/12 00:20:54;;;;;;;9.18;7.25;;;;;;;15.05;100.00;102162.66;172169;28;844;-68
2022/07/12 00:21:00;;;;;;;8.02;7.20;;;;;;;15.04;100.00;102158.34;171894;28;1023;-69
2022/07/12 00:21:07;;;;;;;7.97;7.17;;;;;;;15.05;100.00;102158.28;171927;28;1034;-69
2022/07/12 00:21:12;;;;;;;7.90;7.10;;;;;;;15.04;100.00;102156.56;171979;28;896;-69
2022/07/12 00:21:17;;;;;;;8.10;7.23;;;;;;;15.05;100.00;102165.28;171943;28;1066;-69
2022/07/12 00:21:23;;;;;;;8.77;7.37;;;;;;;15.05;100.00;102162.66;171951;28;1038;-69
2022/07/12 00:21:28;;;;;;;9.38;7.45;;;;;;;15.04;100.00;102161.81;172105;28;856;-69
2022/07/12 00:21:34;;;;;;;9.13;7.47;;;;;;;15.04;100.00;102163.59;172627;28;832;-69
2022/07/12 00:21:39;;;;;;;9.30;7.47;;;;;;;15.05;100.00;102157.41;171885;28;888;-69
2022/07/12 00:21:44;;;;;;;9.03;7.43;;;;;;;15.04;100.00;102160.97;171921;28;1034;-69
2022/07/12 00:21:50;;;;;;;8.63;7.43;;;;;;;15.05;100.00;102160.03;171943;28;871;-69
2022/07/12 00:21:55;;;;;;;8.30;7.37;;;;;;;15.04;100.00;102159.19;171214;28;892;-69
2022/07/12 00:22:01;;;;;;;8.40;7.50;;;;;;;15.04;100.00;102155.69;171258;28;852;-69
2022/07/12 00:22:06;;;;;;;8.70;7.68;;;;;;;15.04;100.00;102160.97;171294;28;904;-69
2022/07/12 00:22:11;;;;;;;9.30;7.80;;;;;;;15.04;100.00;102161.81;171271;28;912;-69
2022/07/12 00:22:17;;;;;;;9.30;7.77;;;;;;;15.04;100.00;102155.69;171277;28;1051;-68
2022/07/12 00:22:23;;;;;;;10.43;7.78;;;;;;;15.04;100.00;102166.22;171257;28;919;-69
2022/07/12 00:22:28;;;;;;;11.32;7.75;;;;;;;15.04;100.00;102160.97;171284;28;908;-68
2022/07/12 00:22:34;;;;;;;11.45;7.70;;;;;;;15.04;100.00;102158.34;171076;28;1455;-69
2022/07/12 00:22:39;;;;;;;11.87;7.70;;;;;;;15.04;100.00;102160.97;171273;28;849;-69
2022/07/12 00:22:46;;;;;;;12.20;7.90;;;;;;;15.04;100.00;102163.59;171271;28;919;-69
2022/07/12 00:22:51;;;;;;;11.10;8.00;;;;;;;15.04;100.00;102155.69;171958;28;872;-69
2022/07/12 00:22:57;;;;;;;9.57;7.97;;;;;;;15.04;100.00;102160.97;171973;28;970;-69
2022/07/12 00:23:03;;;;;;;9.50;8.13;;;;;;;15.04;100.00;102163.59;171139;28;1113;-69
2022/07/12 00:23:08;;;;;;;9.38;8.25;;;;;;;15.04;100.00;102160.97;171270;28;1160;-69
2022/07/12 00:23:14;;;;;;;9.13;8.20;;;;;;;15.03;100.00;102161.88;171290;28;1105;-69
2022/07/12 00:23:19;;;;;;;9.00;8.10;;;;;;;15.03;100.00;102160.13;171270;28;856;-69
2022/07/12 00:23:25;;;;;;;9.13;8.23;;;;;;;15.03;100.00;102159.25;171195;28;861;-69
2022/07/12 00:23:30;;;;;;;9.00;8.10;;;;;;;15.03;100.00;102159.25;171279;28;903;-69
2022/07/12 00:23:36;;;;;;;8.77;7.95;;;;;;;15.03;100.00;102154.00;171316;28;916;-69
2022/07/12 00:23:41;;;;;;;8.70;7.90;;;;;;;15.02;100.00;102153.13;171278;28;990;-69
2022/07/12 00:23:46;;;;;;;8.70;7.90;;;;;;;15.04;100.00;102155.69;171270;28;1062;-69
2022/07/12 00:23:52;;;;;;;8.70;7.80;;;;;;;15.02;100.00;102154.94;171324;28;944;-69
2022/07/12 00:23:58;;;;;;;8.77;7.87;;;;;;;15.03;100.00;102157.50;171919;28;1038;-69
2022/07/12 00:24:05;;;;;;;8.90;8.00;;;;;;;15.03;100.00;102159.25;171956;28;959;-69
2022/07/12 00:24:10;;;;;;;9.00;7.97;;;;;;;15.02;100.00;102155.75;171963;28;971;-69
2022/07/12 00:24:16;;;;;;;8.80;7.93;;;;;;;15.02;100.00;102157.56;171132;28;961;-69
2022/07/12 00:24:21;;;;;;;8.90;8.00;;;;;;;15.02;100.00;102154.94;171249;28;1086;-69
2022/07/12 00:24:27;;;;;;;8.77;7.93;;;;;;;15.02;100.00;102154.94;171229;28;869;-69
2022/07/12 00:24:33;;;;;;;8.70;7.83;;;;;;;15.02;100.00;102160.19;171507;28;1514;-69
2022/07/12 00:24:38;;;;;;;8.60;7.75;;;;;;;15.02;100.00;102162.81;171976;28;896;-69
2022/07/12 00:24:43;;;;;;;8.87;7.97;;;;;;;15.02;100.00;102162.81;171957;28;868;-68
2022/07/12 00:24:49;;;;;;;8.95;8.05;;;;;;;15.01;100.00;102155.81;171958;28;911;-69
2022/07/12 00:24:54;;;;;;;9.00;8.10;;;;;;;15.01;100.00;102158.44;171948;28;947;-69
2022/07/12 00:25:00;;;;;;;9.10;8.20;;;;;;;15.01;100.00;102164.56;171962;28;868;-69
2022/07/12 00:25:06;;;;;;;9.20;8.30;;;;;;;15.01;100.00;102159.31;171981;28;1046;-69
2022/07/12 00:25:12;;;;;;;9.18;8.27;;;;;;;15.01;100.00;102161.06;171893;28;971;-68
2022/07/12 00:25:17;;;;;;;8.92;8.10;;;;;;;15.01;100.00;102161.06;171157;28;1083;-69
2022/07/12 00:25:23;;;;;;;8.90;8.07;;;;;;;15.01;100.00;102161.06;171537;28;872;-69
2022/07/12 00:25:28;;;;;;;8.80;8.00;;;;;;;15.01;100.00;102159.31;171961;28;840;-69
2022/07/12 00:25:34;;;;;;;9.00;8.10;;;;;;;15.01;100.00;102159.31;171936;28;1038;-69
2022/07/12 00:25:39;;;;;;;9.00;8.10;;;;;;;15.00;100.00;102164.63;171961;28;920;-69
2022/07/12 00:25:44;;;;;;;9.10;8.07;;;;;;;15.02;100.00;102162.81;171926;28;1038;-69
2022/07/12 00:25:50;;;;;;;9.33;8.20;;;;;;;15.00;100.00;102160.25;171955;28;1081;-69
2022/07/12 00:25:55;;;;;;;10.33;8.50;;;;;;;15.00;100.00;102164.63;171939;28;879;-69
2022/07/12 00:26:04;;;;;;;9.52;8.40;;;;;;;15.00;100.00;102165.50;171959;28;1018;-69
2022/07/12 00:26:09;;;;;;;9.68;8.40;;;;;;;15.01;100.00;102161.06;171902;28;1312;-69
2022/07/12 00:26:14;;;;;;;9.68;8.55;;;;;;;15.01;100.00;102161.06;172318;28;908;-69
2022/07/12 00:26:20;;;;;;;9.67;8.50;;;;;;;14.99;100.00;102155.88;172618;28;911;-68
2022/07/12 00:26:25;;;;;;;9.37;8.43;;;;;;;14.99;100.00;102157.66;172658;28;900;-69
2022/07/12 00:26:31;;;;;;;9.57;8.57;;;;;;;14.99;100.00;102157.66;172305;28;911;-68
2022/07/12 00:26:36;;;;;;;9.50;8.50;;;;;;;14.99;100.00;102158.50;171961;28;868;-69